createdAt,value
2018-12-07T00:01:37.926Z,1.34
2018-12-07T00:04:06.845Z,1.30
2018-12-07T00:06:35.833Z,1.48
2018-12-07T00:09:06.108Z,1.52
2018-12-07T00:11:35.085Z,1.72
2018-12-07T00:14:04.149Z,1.65
2018-12-07T00:16:33.082Z,1.64
2018-12-07T00:19:02.302Z,1.63
2018-12-07T00:21:31.305Z,1.62
2018-12-07T00:24:00.185Z,1.32
2018-12-07T00:26:29.201Z,1.28
2018-12-07T00:28:58.226Z,1.39
2018-12-07T00:31:27.210Z,1.28
2018-12-07T00:33:56.229Z,1.32
2018-12-07T00:36:25.270Z,1.69
2018-12-07T00:38:54.181Z,1.80
2018-12-07T00:41:23.094Z,1.49
2018-12-07T00:43:51.977Z,1.59
2018-12-07T00:46:24.871Z,1.43
2018-12-07T00:51:36.037Z,1.55
2018-12-07T00:54:05.045Z,1.48
2018-12-07T00:56:34.073Z,1.64
2018-12-07T00:59:03.097Z,1.79
2018-12-07T01:01:32.148Z,1.63
2018-12-07T01:04:01.112Z,1.72
2018-12-07T01:06:30.009Z,2.13
2018-12-07T01:08:59.033Z,2.27
2018-12-07T01:11:27.879Z,2.36
2018-12-07T01:13:56.813Z,2.12
2018-12-07T01:16:25.850Z,2.15
2018-12-07T01:18:54.969Z,2.20
2018-12-07T01:21:24.048Z,2.11
2018-12-07T01:23:53.085Z,2.27
2018-12-07T01:26:22.047Z,2.30
2018-12-07T01:28:51.145Z,2.28
2018-12-07T01:31:20.069Z,1.91
2018-12-07T01:33:49.081Z,1.85
2018-12-07T01:36:18.090Z,1.88
2018-12-07T01:38:47.130Z,1.84
2018-12-07T01:41:16.096Z,1.43
2018-12-07T01:43:45.105Z,1.33
2018-12-07T01:46:14.013Z,1.47
2018-12-07T01:48:42.946Z,1.47
2018-12-07T01:51:11.843Z,1.26
2018-12-07T01:53:40.958Z,1.65
2018-12-07T01:56:09.879Z,1.53
2018-12-07T01:58:38.797Z,1.49
2018-12-07T02:01:07.802Z,1.52
2018-12-07T02:03:36.729Z,1.82
2018-12-07T02:06:05.643Z,1.96
2018-12-07T02:08:34.532Z,1.96
2018-12-07T02:11:03.494Z,1.93
2018-12-07T02:13:32.415Z,1.84
2018-12-07T02:16:04.376Z,1.81
2018-12-07T02:18:33.393Z,1.94
2018-12-07T02:21:02.311Z,1.52
2018-12-07T02:23:31.809Z,1.31
2018-12-07T02:26:00.613Z,1.43
2018-12-07T02:28:29.750Z,0.96
2018-12-07T02:30:58.826Z,0.86
2018-12-07T02:33:27.810Z,1.18
2018-12-07T02:35:56.694Z,1.38
2018-12-07T02:38:25.714Z,1.45
2018-12-07T02:40:54.615Z,1.23
2018-12-07T02:43:23.525Z,1.23
2018-12-07T02:45:52.510Z,0.75
2018-12-07T02:48:21.562Z,1.17
2018-12-07T02:50:50.611Z,1.29
2018-12-07T02:53:19.677Z,1.51
2018-12-07T02:55:48.619Z,1.62
2018-12-07T02:58:17.601Z,1.60
2018-12-07T03:00:46.521Z,1.70
2018-12-07T03:03:15.559Z,1.83
2018-12-07T03:05:44.616Z,1.86
2018-12-07T03:08:13.549Z,1.72
2018-12-07T03:10:42.481Z,1.38
2018-12-07T03:13:11.496Z,1.17
2018-12-07T03:15:40.561Z,1.05
2018-12-07T03:18:20.380Z,0.79
2018-12-07T03:20:49.741Z,0.96
2018-12-07T03:23:18.754Z,0.63
2018-12-07T03:25:47.689Z,0.62
2018-12-07T03:28:16.732Z,0.98
2018-12-07T03:30:45.688Z,1.28
2018-12-07T03:33:14.798Z,1.42
2018-12-07T03:35:43.723Z,1.24
2018-12-07T03:38:12.757Z,1.28
2018-12-07T03:40:41.796Z,1.46
2018-12-07T03:43:10.733Z,1.43
2018-12-07T03:45:39.638Z,1.31
2018-12-07T03:48:08.641Z,1.24
2018-12-07T03:50:37.531Z,1.02
2018-12-07T03:53:06.433Z,1.07
2018-12-07T03:55:35.467Z,1.05
2018-12-07T03:58:04.386Z,0.81
2018-12-07T04:00:33.446Z,0.71
2018-12-07T04:03:02.447Z,0.81
2018-12-07T04:05:31.474Z,0.87
2018-12-07T04:08:00.369Z,0.74
2018-12-07T04:10:29.294Z,0.95
2018-12-07T04:12:58.306Z,0.95
2018-12-07T04:15:27.261Z,1.16
2018-12-07T04:17:56.241Z,1.26
2018-12-07T04:20:25.137Z,1.18
2018-12-07T04:22:54.075Z,1.03
2018-12-07T04:25:23.098Z,0.99
2018-12-07T04:27:52.130Z,0.53
2018-12-07T04:30:28.075Z,0.36
2018-12-07T04:32:57.136Z,0.41
2018-12-07T04:35:26.137Z,0.48
2018-12-07T04:37:55.041Z,0.43
2018-12-07T04:40:23.957Z,0.72
2018-12-07T04:42:53.259Z,1.06
2018-12-07T04:45:22.209Z,0.82
2018-12-07T04:47:51.254Z,0.90
2018-12-07T04:50:20.267Z,0.82
2018-12-07T04:52:49.275Z,0.86
2018-12-07T04:55:18.341Z,0.09
2018-12-07T04:57:47.267Z,0.22
2018-12-07T05:00:16.185Z,0.43
2018-12-07T05:02:45.110Z,-0.01
2018-12-07T05:05:14.162Z,-0.03
2018-12-07T05:07:43.615Z,0.27
2018-12-07T05:10:12.793Z,0.42
2018-12-07T05:12:41.986Z,-0.13
2018-12-07T05:15:10.904Z,0.09
2018-12-07T05:17:39.930Z,0.04
2018-12-07T05:20:08.851Z,-0.04
2018-12-07T05:22:37.737Z,0.69
2018-12-07T05:25:06.639Z,0.85
2018-12-07T05:27:35.751Z,0.55
2018-12-07T05:30:06.311Z,0.15
2018-12-07T05:32:35.244Z,0.60
2018-12-07T05:35:04.703Z,0.79
2018-12-07T05:37:33.801Z,0.82
2018-12-07T05:40:03.330Z,0.80
2018-12-07T05:42:32.253Z,0.86
2018-12-07T05:45:01.252Z,0.26
2018-12-07T05:47:30.164Z,0.16
2018-12-07T05:49:59.090Z,0.07
2018-12-07T05:52:27.897Z,0.05
2018-12-07T05:54:56.815Z,0.02
2018-12-07T05:57:25.750Z,0.07
2018-12-07T05:59:54.685Z,0.29
2018-12-07T06:02:23.744Z,0.36
2018-12-07T06:04:52.661Z,0.47
2018-12-07T06:07:21.566Z,0.64
2018-12-07T06:09:50.491Z,0.60
2018-12-07T06:12:19.357Z,0.62
2018-12-07T06:14:48.389Z,0.55
2018-12-07T06:17:17.347Z,0.53
2018-12-07T06:19:46.310Z,0.55
2018-12-07T06:22:15.846Z,0.58
2018-12-07T06:24:44.856Z,0.54
2018-12-07T06:27:13.789Z,0.58
2018-12-07T06:29:42.701Z,0.50
2018-12-07T06:32:11.817Z,0.50
2018-12-07T06:34:40.842Z,0.71
2018-12-07T06:37:09.766Z,0.82
2018-12-07T06:39:38.698Z,0.80
2018-12-07T06:42:07.778Z,0.83
2018-12-07T06:44:36.706Z,0.91
2018-12-07T06:47:05.550Z,0.82
2018-12-07T06:49:34.645Z,0.73
2018-12-07T06:52:03.889Z,0.90
2018-12-07T06:54:32.834Z,0.97
2018-12-07T06:57:01.854Z,0.84
2018-12-07T06:59:30.893Z,0.75
2018-12-07T07:01:59.944Z,0.73
2018-12-07T07:04:28.889Z,0.67
2018-12-07T07:06:57.829Z,0.74
2018-12-07T07:09:26.646Z,0.74
2018-12-07T07:11:55.557Z,1.09
2018-12-07T07:14:24.527Z,1.29
2018-12-07T07:16:53.789Z,1.10
2018-12-07T07:19:22.715Z,0.95
2018-12-07T07:21:51.623Z,1.04
2018-12-07T07:24:20.570Z,1.29
2018-12-07T07:26:49.482Z,1.16
2018-12-07T07:29:18.286Z,1.45
2018-12-07T07:31:47.202Z,1.68
2018-12-07T07:34:16.113Z,1.82
2018-12-07T07:36:45.038Z,1.86
2018-12-07T07:39:14.286Z,1.79
2018-12-07T07:41:43.376Z,1.92
2018-12-07T07:44:12.476Z,1.80
2018-12-07T07:46:41.769Z,1.88
2018-12-07T07:49:10.693Z,2.04
2018-12-07T07:51:39.642Z,2.05
2018-12-07T07:54:08.965Z,2.28
2018-12-07T07:56:37.941Z,2.41
2018-12-07T07:59:06.791Z,2.25
2018-12-07T08:01:36.168Z,2.48
2018-12-07T08:04:05.114Z,2.18
2018-12-07T08:06:34.684Z,2.27
2018-12-07T08:09:06.346Z,2.44
2018-12-07T08:11:35.270Z,2.51
2018-12-07T08:14:04.308Z,2.53
2018-12-07T08:16:33.358Z,2.94
2018-12-07T08:19:02.323Z,3.07
2018-12-07T08:21:31.253Z,2.81
2018-12-07T08:24:00.098Z,2.60
2018-12-07T08:26:29.061Z,2.61
2018-12-07T08:28:58.002Z,2.66
2018-12-07T08:31:26.978Z,2.82
2018-12-07T08:33:55.925Z,2.88
2018-12-07T08:36:24.868Z,2.98
2018-12-07T08:38:53.810Z,2.94
2018-12-07T08:41:22.753Z,3.03
2018-12-07T08:43:51.601Z,3.43
2018-12-07T08:46:20.537Z,3.38
2018-12-07T08:48:49.695Z,3.35
2018-12-07T08:51:19.017Z,3.25
2018-12-07T08:53:48.067Z,3.38
2018-12-07T08:56:16.889Z,3.76
2018-12-07T08:58:45.845Z,3.71
2018-12-07T09:01:14.774Z,3.54
2018-12-07T09:03:43.717Z,3.91
2018-12-07T09:06:12.966Z,3.75
2018-12-07T09:08:41.913Z,3.93
2018-12-07T09:11:10.957Z,4.22
2018-12-07T09:13:40.053Z,4.49
2018-12-07T09:16:08.989Z,4.59
2018-12-07T09:18:37.893Z,4.21
2018-12-07T09:21:07.818Z,3.98
2018-12-07T09:23:36.629Z,3.90
2018-12-07T09:26:05.605Z,3.83
2018-12-07T09:28:34.633Z,3.84
2018-12-07T09:31:03.647Z,3.86
2018-12-07T09:33:32.610Z,3.84
2018-12-07T09:36:01.622Z,4.11
2018-12-07T09:38:30.714Z,4.02
2018-12-07T09:40:59.865Z,4.03
2018-12-07T09:43:29.013Z,4.05
2018-12-07T09:45:57.945Z,4.17
2018-12-07T09:48:26.835Z,4.29
2018-12-07T09:50:55.785Z,4.61
2018-12-07T09:53:25.186Z,4.49
2018-12-07T09:55:54.142Z,4.81
2018-12-07T09:58:23.098Z,4.99
2018-12-07T10:00:51.887Z,4.84
2018-12-07T10:03:20.806Z,4.45
2018-12-07T10:05:49.821Z,4.90
2018-12-07T10:08:18.843Z,5.00
2018-12-07T10:10:47.904Z,5.06
2018-12-07T10:13:16.940Z,5.09
2018-12-07T10:15:45.773Z,4.78
2018-12-07T10:18:14.762Z,4.93
2018-12-07T10:20:43.573Z,5.10
2018-12-07T10:23:12.493Z,4.96
2018-12-07T10:25:41.405Z,5.17
2018-12-07T10:28:10.341Z,5.30
2018-12-07T10:30:39.177Z,5.17
2018-12-07T10:33:08.123Z,5.46
2018-12-07T10:35:37.042Z,5.55
2018-12-07T10:38:05.941Z,5.64
2018-12-07T10:40:34.838Z,5.65
2018-12-07T10:43:03.702Z,5.60
2018-12-07T10:45:32.643Z,5.52
2018-12-07T10:48:01.672Z,5.51
2018-12-07T10:50:30.490Z,5.41
2018-12-07T10:52:59.689Z,5.22
2018-12-07T10:55:28.591Z,5.11
2018-12-07T10:57:57.497Z,5.37
2018-12-07T11:00:31.941Z,5.40
2018-12-07T11:03:06.502Z,5.26
2018-12-07T11:05:40.927Z,5.13
2018-12-07T11:08:15.074Z,5.23
2018-12-07T11:10:49.670Z,5.40
2018-12-07T11:13:24.078Z,5.40
2018-12-07T11:15:58.635Z,5.50
2018-12-07T11:18:33.044Z,5.59
2018-12-07T11:21:07.530Z,5.49
2018-12-07T11:23:41.942Z,5.59
2018-12-07T11:26:16.381Z,5.49
2018-12-07T11:28:50.669Z,5.51
2018-12-07T11:31:25.257Z,5.55
2018-12-07T11:34:01.112Z,5.52
2018-12-07T11:36:30.054Z,5.54
2018-12-07T11:38:58.955Z,5.51
2018-12-07T11:41:27.881Z,5.61
2018-12-07T11:43:56.925Z,5.51
2018-12-07T11:46:25.953Z,5.52
2018-12-07T11:48:54.792Z,5.49
2018-12-07T11:51:24.210Z,5.50
2018-12-07T11:53:53.238Z,5.58
2018-12-07T11:56:22.666Z,5.71
2018-12-07T11:58:51.605Z,5.66
2018-12-07T12:01:23.596Z,5.69
2018-12-07T12:03:53.190Z,5.71
2018-12-07T12:06:22.137Z,5.76
2018-12-07T12:08:51.052Z,5.72
2018-12-07T12:11:20.148Z,5.72
2018-12-07T12:13:48.971Z,5.77
2018-12-07T12:16:17.874Z,5.74
2018-12-07T12:18:46.813Z,5.76
2018-12-07T12:21:15.758Z,5.74
2018-12-07T12:23:44.593Z,5.66
2018-12-07T12:26:14.260Z,5.71
2018-12-07T12:28:43.417Z,5.72
2018-12-07T12:31:12.476Z,5.78
2018-12-07T12:33:41.925Z,5.74
2018-12-07T12:36:17.066Z,5.64
2018-12-07T12:38:41.905Z,5.73
2018-12-07T12:41:10.809Z,5.74
2018-12-07T12:43:39.844Z,5.77
2018-12-07T12:46:08.805Z,5.74
2018-12-07T12:48:37.708Z,5.79
2018-12-07T12:51:06.709Z,5.80
2018-12-07T12:53:35.647Z,5.87
2018-12-07T12:56:04.566Z,5.85
2018-12-07T12:58:33.698Z,5.76
2018-12-07T13:01:02.675Z,5.81
2018-12-07T13:03:31.790Z,5.83
2018-12-07T13:06:00.702Z,5.90
2018-12-07T13:08:29.833Z,5.81
2018-12-07T13:10:58.717Z,5.84
2018-12-07T13:13:27.510Z,5.89
2018-12-07T13:15:56.441Z,5.85
2018-12-07T13:18:25.448Z,5.82
2018-12-07T13:20:54.463Z,5.73
2018-12-07T13:23:23.662Z,5.79
2018-12-07T13:25:52.641Z,5.83
2018-12-07T13:28:21.566Z,5.76
2018-12-07T13:30:50.617Z,5.81
2018-12-07T13:33:19.607Z,5.89
2018-12-07T13:35:48.722Z,5.88
2018-12-07T13:38:17.743Z,5.93
2018-12-07T13:40:46.757Z,5.81
2018-12-07T13:43:16.025Z,5.85
2018-12-07T13:45:45.155Z,5.83
2018-12-07T13:48:14.598Z,5.86
2018-12-07T13:50:43.701Z,5.75
2018-12-07T13:53:13.838Z,5.75
2018-12-07T13:55:42.909Z,5.80
2018-12-07T13:58:12.098Z,5.71
2018-12-07T14:00:41.889Z,5.73
2018-12-07T14:03:11.371Z,5.76
2018-12-07T14:05:40.882Z,5.62
2018-12-07T14:08:09.915Z,5.63
2018-12-07T14:10:38.953Z,5.53
2018-12-07T14:13:09.138Z,5.52
2018-12-07T14:15:38.837Z,5.50
2018-12-07T14:18:08.257Z,5.43
2018-12-07T14:20:37.380Z,5.56
2018-12-07T14:23:06.473Z,5.43
2018-12-07T14:25:36.064Z,5.47
2018-12-07T14:28:05.635Z,5.50
2018-12-07T14:30:36.139Z,5.50
2018-12-07T14:33:05.519Z,5.40
2018-12-07T14:35:34.974Z,5.35
2018-12-07T14:38:04.730Z,5.37
2018-12-07T14:40:33.973Z,5.32
2018-12-07T14:43:03.259Z,5.37
2018-12-07T14:45:32.542Z,5.33
2018-12-07T14:48:01.841Z,5.27
2018-12-07T14:50:31.195Z,5.25
2018-12-07T14:53:00.413Z,5.18
2018-12-07T14:55:30.038Z,5.08
2018-12-07T14:57:59.230Z,5.13
2018-12-07T15:00:29.545Z,5.10
2018-12-07T15:02:59.130Z,5.06
2018-12-07T15:05:28.459Z,5.04
2018-12-07T15:07:58.155Z,5.09
2018-12-07T15:10:27.728Z,5.14
2018-12-07T15:12:57.069Z,5.17
2018-12-07T15:15:26.419Z,5.18
2018-12-07T15:17:55.770Z,5.08
2018-12-07T15:20:25.018Z,5.02
2018-12-07T15:22:54.095Z,4.94
2018-12-07T15:25:23.693Z,4.94
2018-12-07T15:27:52.786Z,4.88
2018-12-07T15:30:22.334Z,5.01
2018-12-07T15:32:51.378Z,4.94
2018-12-07T15:35:20.482Z,4.90
2018-12-07T15:37:49.707Z,4.90
2018-12-07T15:40:18.986Z,4.88
2018-12-07T15:42:48.369Z,4.80
2018-12-07T15:45:17.714Z,4.83
2018-12-07T15:47:47.666Z,4.78
2018-12-07T15:50:24.692Z,4.77
2018-12-07T15:52:47.835Z,4.79
2018-12-07T15:55:17.786Z,4.74
2018-12-07T15:57:47.020Z,4.69
2018-12-07T16:00:16.245Z,4.77
2018-12-07T16:02:45.613Z,4.86
2018-12-07T16:05:14.979Z,4.81
2018-12-07T16:07:44.318Z,4.84
2018-12-07T16:10:13.943Z,4.74
2018-12-07T16:12:43.107Z,4.71
2018-12-07T16:15:12.113Z,4.68
2018-12-07T16:17:41.991Z,4.67
2018-12-07T16:20:14.793Z,4.77
2018-12-07T16:22:44.514Z,4.63
2018-12-07T16:25:14.331Z,4.55
2018-12-07T16:27:43.967Z,4.57
2018-12-07T16:30:12.963Z,4.52
2018-12-07T16:32:42.085Z,4.41
2018-12-07T16:35:11.462Z,4.49
2018-12-07T16:37:40.960Z,4.53
2018-12-07T16:40:11.026Z,4.60
2018-12-07T16:42:40.512Z,4.57
2018-12-07T16:45:10.097Z,4.57
2018-12-07T16:47:39.143Z,4.54
2018-12-07T16:50:08.451Z,4.34
2018-12-07T16:52:37.653Z,4.45
2018-12-07T16:55:06.824Z,4.34
2018-12-07T16:57:35.925Z,4.36
2018-12-07T17:00:05.818Z,4.44
2018-12-07T17:02:35.229Z,4.01
2018-12-07T17:05:06.131Z,4.11
2018-12-07T17:07:35.273Z,4.27
2018-12-07T17:10:05.366Z,4.31
2018-12-07T17:12:34.555Z,4.40
2018-12-07T17:15:03.864Z,4.42
2018-12-07T17:17:33.018Z,4.21
2018-12-07T17:20:02.141Z,4.19
2018-12-07T17:22:32.225Z,4.23
2018-12-07T17:25:01.755Z,4.08
2018-12-07T17:27:31.103Z,4.01
2018-12-07T17:30:00.441Z,4.03
2018-12-07T17:32:29.477Z,4.00
2018-12-07T17:34:59.037Z,4.01
2018-12-07T17:37:28.214Z,3.81
2018-12-07T17:39:57.316Z,3.86
2018-12-07T17:42:29.705Z,3.89
2018-12-07T17:44:59.380Z,3.92
2018-12-07T17:47:28.446Z,3.98
2018-12-07T17:49:57.537Z,3.92
2018-12-07T17:52:26.553Z,3.64
2018-12-07T17:54:55.793Z,3.70
2018-12-07T17:57:24.870Z,3.69
2018-12-07T17:59:53.935Z,3.64
2018-12-07T18:02:23.100Z,3.82
2018-12-07T18:04:52.231Z,4.10
2018-12-07T18:07:21.756Z,4.12
2018-12-07T18:09:50.862Z,3.69
2018-12-07T18:12:20.213Z,3.43
2018-12-07T18:14:49.949Z,3.64
2018-12-07T18:17:19.000Z,3.60
2018-12-07T18:19:48.215Z,3.48
2018-12-07T18:22:18.138Z,3.66
2018-12-07T18:24:47.365Z,3.75
2018-12-07T18:27:16.887Z,3.34
2018-12-07T18:29:46.734Z,3.04
2018-12-07T18:32:16.326Z,3.35
2018-12-07T18:34:45.586Z,3.53
2018-12-07T18:37:14.881Z,3.55
2018-12-07T18:39:44.335Z,3.44
2018-12-07T18:42:13.671Z,3.46
2018-12-07T18:44:43.068Z,3.29
2018-12-07T18:47:12.526Z,2.93
2018-12-07T18:49:41.526Z,2.94
2018-12-07T18:52:10.803Z,3.14
2018-12-07T18:54:40.487Z,3.08
2018-12-07T18:57:10.896Z,3.03
2018-12-07T18:59:40.085Z,2.99
2018-12-07T19:02:09.319Z,2.80
2018-12-07T19:04:38.559Z,3.10
2018-12-07T19:07:08.819Z,3.10
2018-12-07T19:09:38.637Z,3.00
2018-12-07T19:12:08.813Z,2.72
2018-12-07T19:14:38.942Z,2.73
2018-12-07T19:17:08.131Z,2.85
2018-12-07T19:19:38.552Z,2.88
2018-12-07T19:22:08.549Z,2.79
2018-12-07T19:24:38.180Z,2.98
2018-12-07T19:27:07.968Z,2.97
2018-12-07T19:29:36.970Z,3.05
2018-12-07T19:32:06.284Z,2.77
2018-12-07T19:34:35.714Z,2.78
2018-12-07T19:37:05.248Z,2.54
2018-12-07T19:39:34.511Z,2.68
2018-12-07T19:42:03.451Z,2.79
2018-12-07T19:44:32.463Z,2.45
2018-12-07T19:47:01.666Z,2.26
2018-12-07T19:49:31.906Z,2.22
2018-12-07T19:52:01.714Z,2.41
2018-12-07T19:54:30.826Z,2.51
2018-12-07T19:56:59.745Z,2.33
2018-12-07T19:59:28.828Z,2.12
2018-12-07T20:01:57.904Z,2.11
2018-12-07T20:04:27.519Z,2.33
2018-12-07T20:06:56.650Z,2.27
2018-12-07T20:09:25.883Z,2.37
2018-12-07T20:11:55.089Z,2.50
2018-12-07T20:14:24.578Z,2.70
2018-12-07T20:16:53.993Z,2.66
2018-12-07T20:19:23.132Z,2.43
2018-12-07T20:21:52.078Z,1.95
2018-12-07T20:24:20.993Z,2.10
2018-12-07T20:26:50.277Z,2.28
2018-12-07T20:29:20.097Z,2.15
2018-12-07T20:31:49.166Z,1.93
2018-12-07T20:34:18.441Z,2.03
2018-12-07T20:36:48.071Z,1.99
2018-12-07T20:39:17.237Z,2.02
2018-12-07T20:41:46.497Z,2.19
2018-12-07T20:44:15.675Z,1.99
2018-12-07T20:46:45.301Z,1.85
2018-12-07T20:49:14.655Z,2.00
2018-12-07T20:51:44.079Z,1.91
2018-12-07T20:54:13.499Z,2.16
2018-12-07T20:56:42.953Z,1.92
2018-12-07T20:59:12.558Z,1.89
2018-12-07T21:01:41.611Z,1.69
2018-12-07T21:04:37.045Z,2.00
2018-12-07T21:07:37.586Z,2.01
2018-12-07T21:10:35.314Z,1.69
2018-12-07T21:13:44.896Z,2.11
2018-12-07T21:17:18.822Z,1.56
2018-12-07T21:19:58.140Z,1.81
2018-12-07T21:22:28.736Z,1.96
2018-12-07T21:24:58.107Z,1.95
2018-12-07T21:27:27.591Z,2.20
2018-12-07T21:33:32.176Z,1.78
2018-12-07T21:36:45.222Z,1.76
2018-12-07T21:39:22.619Z,1.56
2018-12-07T21:41:51.792Z,1.76
2018-12-07T21:44:20.914Z,1.61
2018-12-07T21:46:50.012Z,1.34
2018-12-07T21:49:18.974Z,1.55
2018-12-07T21:51:54.229Z,1.85
2018-12-07T21:54:30.141Z,2.08
2018-12-07T21:56:59.086Z,1.75
2018-12-07T21:59:28.027Z,1.77
2018-12-07T22:01:57.267Z,1.56
2018-12-07T22:04:26.442Z,1.60
2018-12-07T22:06:55.552Z,1.74
2018-12-07T22:09:24.651Z,1.62
2018-12-07T22:11:53.757Z,1.29
2018-12-07T22:14:22.817Z,1.66
2018-12-07T22:16:52.209Z,1.42
2018-12-07T22:19:21.532Z,1.20
2018-12-07T22:21:50.497Z,1.35
2018-12-07T22:24:19.587Z,1.38
2018-12-07T22:26:48.673Z,1.57
2018-12-07T22:29:17.877Z,1.57
2018-12-07T22:31:47.138Z,1.69
2018-12-07T22:34:16.370Z,1.44
2018-12-07T22:36:45.673Z,1.42
2018-12-07T22:39:15.330Z,1.64
2018-12-07T22:41:44.501Z,1.65
2018-12-07T22:44:13.541Z,1.55
2018-12-07T22:46:42.605Z,1.50
2018-12-07T22:49:11.563Z,1.31
2018-12-07T22:51:40.456Z,1.17
2018-12-07T22:54:09.578Z,1.37
2018-12-07T22:56:38.810Z,1.13
2018-12-07T22:59:07.705Z,1.06
2018-12-07T23:01:36.748Z,1.38
2018-12-07T23:04:05.874Z,1.68
2018-12-07T23:06:34.874Z,0.99
2018-12-07T23:09:06.117Z,1.05
2018-12-07T23:11:35.128Z,0.94
2018-12-07T23:14:04.012Z,0.92
2018-12-07T23:16:33.050Z,1.10
2018-12-07T23:19:02.088Z,1.10
2018-12-07T23:21:30.988Z,0.81
2018-12-07T23:23:59.901Z,0.85
2018-12-07T23:26:28.868Z,1.14
2018-12-07T23:28:57.664Z,0.95
2018-12-07T23:31:26.933Z,0.70
2018-12-07T23:33:55.996Z,1.01
2018-12-07T23:36:24.989Z,0.89
2018-12-07T23:38:53.896Z,0.73
2018-12-07T23:41:22.913Z,0.92
2018-12-07T23:43:51.926Z,0.94
2018-12-07T23:46:20.865Z,0.92
2018-12-07T23:48:50.667Z,1.03
2018-12-07T23:51:19.591Z,0.98
2018-12-07T23:53:48.594Z,0.77
2018-12-07T23:56:17.490Z,1.22
2018-12-07T23:58:46.641Z,0.93
